createdAt,value
2023-03-11T00:01:36.539Z,54.15
2023-03-11T00:04:43.703Z,54.01
2023-03-11T00:07:52.227Z,53.72
2023-03-11T00:11:03.069Z,53.45
2023-03-11T00:14:08.846Z,53.25
2023-03-11T00:17:18.353Z,52.90
2023-03-11T00:20:28.355Z,53.12
2023-03-11T00:23:37.596Z,52.85
2023-03-11T00:26:43.525Z,52.69
2023-03-11T00:29:50.083Z,52.37
2023-03-11T00:32:59.733Z,52.85
2023-03-11T00:36:07.114Z,52.63
2023-03-11T00:39:15.589Z,53.62
2023-03-11T00:42:23.911Z,54.60
2023-03-11T00:45:31.831Z,54.78
2023-03-11T00:48:38.465Z,54.20
2023-03-11T00:51:44.890Z,53.15
2023-03-11T00:54:54.220Z,52.49
2023-03-11T00:58:03.830Z,51.67
2023-03-11T01:01:30.853Z,51.32
2023-03-11T01:04:36.865Z,51.30
2023-03-11T01:07:43.651Z,50.34
2023-03-11T01:10:52.235Z,50.51
2023-03-11T01:13:58.769Z,49.88
2023-03-11T01:17:04.570Z,49.94
2023-03-11T01:20:12.856Z,49.91
2023-03-11T01:23:20.996Z,49.91
2023-03-11T01:26:30.225Z,49.99
2023-03-11T01:29:36.167Z,50.03
2023-03-11T01:32:43.448Z,49.85
2023-03-11T01:35:50.325Z,49.25
2023-03-11T01:38:58.027Z,48.70
2023-03-11T01:42:07.082Z,49.33
2023-03-11T01:45:42.602Z,48.87
2023-03-11T01:48:53.992Z,49.38
2023-03-11T01:52:08.068Z,50.69
2023-03-11T01:55:23.146Z,51.32
2023-03-11T01:58:41.026Z,52.10
2023-03-11T02:01:58.155Z,52.47
2023-03-11T02:05:07.699Z,52.41
2023-03-11T02:08:13.817Z,52.21
2023-03-11T02:11:26.586Z,52.46
2023-03-11T02:14:38.253Z,51.90
2023-03-11T02:17:47.403Z,51.93
2023-03-11T02:21:10.048Z,51.51
2023-03-11T02:24:31.125Z,51.43
2023-03-11T02:27:48.222Z,51.47
2023-03-11T02:30:56.685Z,51.55
2023-03-11T02:34:12.988Z,51.75
2023-03-11T02:37:21.870Z,51.20
2023-03-11T02:40:55.732Z,51.21
2023-03-11T02:44:09.852Z,50.72
2023-03-11T02:47:17.454Z,51.04
2023-03-11T02:50:28.264Z,50.77
2023-03-11T02:53:44.557Z,50.27
2023-03-11T02:56:51.110Z,49.69
2023-03-11T03:00:02.400Z,49.48
2023-03-11T03:03:10.736Z,49.22
2023-03-11T03:06:18.341Z,48.86
2023-03-11T03:09:25.059Z,48.44
2023-03-11T03:12:31.080Z,48.35
2023-03-11T03:15:40.326Z,49.98
2023-03-11T03:18:46.410Z,51.24
2023-03-11T03:21:53.979Z,52.25
2023-03-11T03:25:01.472Z,52.47
2023-03-11T03:28:10.039Z,52.44
2023-03-11T03:31:21.406Z,52.89
2023-03-11T03:34:28.627Z,53.66
2023-03-11T03:37:38.440Z,53.92
2023-03-11T03:40:50.518Z,54.85
2023-03-11T03:43:59.345Z,54.80
2023-03-11T03:47:09.505Z,55.12
2023-03-11T03:50:17.739Z,56.03
2023-03-11T03:53:27.274Z,57.55
2023-03-11T03:56:33.905Z,59.42
2023-03-11T03:59:41.687Z,60.19
2023-03-11T04:02:50.058Z,60.96
2023-03-11T04:06:13.466Z,60.35
2023-03-11T04:09:19.535Z,60.84
2023-03-11T04:12:26.241Z,61.72
2023-03-11T04:15:32.364Z,61.37
2023-03-11T04:18:41.558Z,61.05
2023-03-11T04:21:47.564Z,60.96
2023-03-11T04:24:54.701Z,60.94
2023-03-11T04:28:03.087Z,61.00
2023-03-11T04:31:12.696Z,60.89
2023-03-11T04:34:21.337Z,61.27
2023-03-11T04:37:31.528Z,61.18
2023-03-11T04:40:40.135Z,61.59
2023-03-11T04:43:47.148Z,61.96
2023-03-11T04:46:53.359Z,62.30
2023-03-11T04:50:02.632Z,63.38
2023-03-11T04:53:09.201Z,63.39
2023-03-11T04:56:17.101Z,63.87
2023-03-11T04:59:23.172Z,62.95
2023-03-11T05:02:31.345Z,63.52
2023-03-11T05:05:42.085Z,62.96
2023-03-11T05:08:50.097Z,62.87
2023-03-11T05:11:56.273Z,61.97
2023-03-11T05:15:03.637Z,62.54
2023-03-11T05:18:09.937Z,62.76
2023-03-11T05:21:20.858Z,62.71
2023-03-11T05:24:27.985Z,63.23
2023-03-11T05:27:36.137Z,63.78
2023-03-11T05:30:43.092Z,65.36
2023-03-11T05:33:50.213Z,64.78
2023-03-11T05:36:59.420Z,63.70
2023-03-11T05:40:10.470Z,64.30
2023-03-11T05:43:17.279Z,64.03
2023-03-11T05:46:32.456Z,64.57
2023-03-11T05:49:39.943Z,64.43
2023-03-11T05:52:49.322Z,64.18
2023-03-11T05:56:02.669Z,63.43
2023-03-11T05:59:09.500Z,64.27
2023-03-11T06:02:16.045Z,63.56
2023-03-11T06:05:23.140Z,63.07
2023-03-11T06:08:34.614Z,62.65
2023-03-11T06:11:42.455Z,62.93
2023-03-11T06:14:48.919Z,63.82
2023-03-11T06:17:55.866Z,62.93
2023-03-11T06:21:04.144Z,62.94
2023-03-11T06:24:15.023Z,64.09
2023-03-11T06:27:25.821Z,66.51
2023-03-11T06:30:33.771Z,65.90
2023-03-11T06:33:46.430Z,66.15
2023-03-11T06:36:57.371Z,66.87
2023-03-11T06:40:07.529Z,67.15
2023-03-11T06:43:14.725Z,67.21
2023-03-11T06:46:25.599Z,68.36
2023-03-11T06:49:34.552Z,67.06
2023-03-11T06:52:40.509Z,67.81
2023-03-11T06:56:02.533Z,67.78
2023-03-11T06:59:10.492Z,68.12
2023-03-11T07:02:17.401Z,67.99
2023-03-11T07:05:23.291Z,67.04
2023-03-11T07:08:34.796Z,67.43
2023-03-11T07:11:43.371Z,67.99
2023-03-11T07:14:58.866Z,68.27
2023-03-11T07:18:05.667Z,67.56
2023-03-11T07:21:14.307Z,67.44
2023-03-11T07:24:20.304Z,67.55
2023-03-11T07:27:31.730Z,67.93
2023-03-11T07:30:37.554Z,67.36
2023-03-11T07:33:44.356Z,67.12
2023-03-11T07:36:50.157Z,68.22
2023-03-11T07:39:57.119Z,68.85
2023-03-11T07:43:05.637Z,67.32
2023-03-11T07:46:16.685Z,69.63
2023-03-11T07:49:22.658Z,70.05
2023-03-11T07:52:32.454Z,68.32
2023-03-11T07:55:40.317Z,67.37
2023-03-11T07:58:50.026Z,68.54
2023-03-11T08:01:57.134Z,68.20
2023-03-11T08:05:03.861Z,68.19
2023-03-11T08:08:09.773Z,69.20
2023-03-11T08:11:18.007Z,68.68
2023-03-11T08:14:26.398Z,70.65
2023-03-11T08:17:33.115Z,70.05
2023-03-11T08:20:41.105Z,70.06
2023-03-11T08:23:49.201Z,69.60
2023-03-11T08:26:55.646Z,69.76
2023-03-11T08:30:05.216Z,69.33
2023-03-11T08:33:11.201Z,69.02
2023-03-11T08:36:17.974Z,69.29
2023-03-11T08:39:24.112Z,69.21
2023-03-11T08:42:30.703Z,69.97
2023-03-11T08:45:39.114Z,70.58
2023-03-11T08:48:47.261Z,69.96
2023-03-11T08:51:53.115Z,70.40
2023-03-11T08:55:00.412Z,70.70
2023-03-11T08:58:07.676Z,68.84
2023-03-11T09:01:17.320Z,70.88
2023-03-11T09:04:23.120Z,70.72
2023-03-11T09:07:29.828Z,70.33
2023-03-11T09:10:36.076Z,70.43
2023-03-11T09:13:43.856Z,71.41
2023-03-11T09:16:52.217Z,71.00
2023-03-11T09:19:58.823Z,71.59
2023-03-11T09:23:04.812Z,71.88
2023-03-11T09:26:11.516Z,73.55
2023-03-11T09:29:18.209Z,72.74
2023-03-11T09:32:28.317Z,72.27
2023-03-11T09:35:34.446Z,73.41
2023-03-11T09:38:41.216Z,73.09
2023-03-11T09:41:59.059Z,74.37
2023-03-11T09:45:15.520Z,75.13
2023-03-11T09:48:40.231Z,75.35
2023-03-11T09:52:04.846Z,75.28
2023-03-11T09:55:34.711Z,74.84
2023-03-11T09:58:47.733Z,75.55
2023-03-11T10:01:55.821Z,76.06
2023-03-11T10:05:16.909Z,75.61
2023-03-11T10:08:36.258Z,74.90
2023-03-11T10:12:10.009Z,74.03
2023-03-11T10:15:39.707Z,75.32
2023-03-11T10:19:03.575Z,74.22
2023-03-11T10:22:29.915Z,74.67
2023-03-11T10:25:56.851Z,75.08
2023-03-11T10:29:13.236Z,75.97
2023-03-11T10:32:32.033Z,74.79
2023-03-11T10:35:47.550Z,74.79
2023-03-11T10:38:59.149Z,74.05
2023-03-11T10:42:08.874Z,74.97
2023-03-11T10:45:17.607Z,73.79
2023-03-11T10:48:25.748Z,75.09
2023-03-11T10:51:38.587Z,75.28
2023-03-11T10:54:51.169Z,74.49
2023-03-11T10:58:10.426Z,73.79
2023-03-11T11:01:21.856Z,75.96
2023-03-11T11:04:45.107Z,75.79
2023-03-11T11:07:53.269Z,74.65
2023-03-11T11:11:05.898Z,74.47
2023-03-11T11:14:12.370Z,73.31
2023-03-11T11:17:30.009Z,73.02
2023-03-11T11:20:37.845Z,75.88
2023-03-11T11:23:53.032Z,75.45
2023-03-11T11:27:21.622Z,75.50
2023-03-11T11:30:32.420Z,74.59
2023-03-11T11:33:53.226Z,75.29
2023-03-11T11:37:02.792Z,73.69
2023-03-11T11:40:30.783Z,73.17
2023-03-11T11:43:53.289Z,74.07
2023-03-11T11:47:10.590Z,73.64
2023-03-11T11:50:30.254Z,74.42
2023-03-11T11:53:47.228Z,74.59
2023-03-11T11:56:53.909Z,74.61
2023-03-11T12:00:09.614Z,73.46
2023-03-11T12:03:51.503Z,74.77
2023-03-11T12:07:22.281Z,74.90
2023-03-11T12:10:44.497Z,73.92
2023-03-11T12:14:08.453Z,73.12
2023-03-11T12:17:23.744Z,73.48
2023-03-11T12:20:41.421Z,74.31
2023-03-11T12:24:12.260Z,73.95
2023-03-11T12:27:28.288Z,72.85
2023-03-11T12:30:44.677Z,75.24
2023-03-11T12:34:03.265Z,74.35
2023-03-11T12:37:18.448Z,74.00
2023-03-11T12:41:01.137Z,75.32
2023-03-11T12:44:26.598Z,74.66
2023-03-11T12:47:35.246Z,73.01
2023-03-11T12:50:47.328Z,74.36
2023-03-11T12:53:53.263Z,73.61
2023-03-11T12:57:03.265Z,73.83
2023-03-11T13:00:30.706Z,74.42
2023-03-11T13:04:24.372Z,74.66
2023-03-11T13:07:51.238Z,76.36
2023-03-11T13:11:00.748Z,75.49
2023-03-11T13:14:34.176Z,74.22
2023-03-11T13:17:41.977Z,74.92
2023-03-11T13:20:59.025Z,73.46
2023-03-11T13:24:52.987Z,73.52
2023-03-11T13:28:25.584Z,74.41
2023-03-11T13:31:59.376Z,73.64
2023-03-11T13:35:32.393Z,72.76
2023-03-11T13:39:30.573Z,73.76
2023-03-11T13:43:02.798Z,74.06
2023-03-11T13:46:38.555Z,75.04
2023-03-11T13:50:08.952Z,73.93
2023-03-11T13:53:42.530Z,74.29
2023-03-11T13:56:57.620Z,73.30
2023-03-11T14:00:24.252Z,73.01
2023-03-11T14:03:36.939Z,72.93
2023-03-11T14:06:42.787Z,72.89
2023-03-11T14:09:49.531Z,72.24
2023-03-11T14:13:07.339Z,72.92
2023-03-11T14:16:24.240Z,71.76
2023-03-11T14:19:30.697Z,73.22
2023-03-11T14:22:56.594Z,73.45
2023-03-11T14:26:23.131Z,72.84
2023-03-11T14:29:46.036Z,73.14
2023-03-11T14:33:25.449Z,71.87
2023-03-11T14:36:32.203Z,72.24
2023-03-11T14:39:40.504Z,72.40
2023-03-11T14:42:48.821Z,72.69
2023-03-11T14:45:58.122Z,73.55
2023-03-11T14:49:17.178Z,71.34
2023-03-11T14:52:37.474Z,70.95
2023-03-11T14:55:53.816Z,69.52
2023-03-11T14:59:12.676Z,72.18
2023-03-11T15:02:44.157Z,72.20
2023-03-11T15:05:57.894Z,70.34
2023-03-11T15:09:13.502Z,71.44
2023-03-11T15:12:37.477Z,71.20
2023-03-11T15:15:46.285Z,71.09
2023-03-11T15:18:54.526Z,69.59
2023-03-11T15:22:27.229Z,72.48
2023-03-11T15:25:37.533Z,70.83
2023-03-11T15:28:45.227Z,68.69
2023-03-11T15:31:52.039Z,69.30
2023-03-11T15:35:16.434Z,70.86
2023-03-11T15:38:28.880Z,67.58
2023-03-11T15:41:35.520Z,72.16
2023-03-11T15:44:48.411Z,69.38
2023-03-11T15:47:56.913Z,68.81
2023-03-11T15:51:04.019Z,68.19
2023-03-11T15:54:13.367Z,66.97
2023-03-11T15:57:27.993Z,67.40
2023-03-11T16:00:35.805Z,67.54
2023-03-11T16:03:41.769Z,66.64
2023-03-11T16:07:02.932Z,69.85
2023-03-11T16:10:19.098Z,69.47
2023-03-11T16:13:25.728Z,67.55
2023-03-11T16:16:31.681Z,67.09
2023-03-11T16:19:38.447Z,66.38
2023-03-11T16:22:44.719Z,66.43
2023-03-11T16:25:59.562Z,64.70
2023-03-11T16:29:18.523Z,66.65
2023-03-11T16:32:28.148Z,64.60
2023-03-11T16:35:33.999Z,65.51
2023-03-11T16:38:50.680Z,65.11
2023-03-11T16:41:59.253Z,64.83
2023-03-11T16:45:06.041Z,65.31
2023-03-11T16:48:13.523Z,65.34
2023-03-11T16:51:20.174Z,64.22
2023-03-11T16:54:27.878Z,64.44
2023-03-11T16:57:38.013Z,65.35
2023-03-11T17:00:44.269Z,62.90
2023-03-11T17:03:52.123Z,63.96
2023-03-11T17:06:58.322Z,64.58
2023-03-11T17:10:06.670Z,65.02
2023-03-11T17:13:19.206Z,63.31
2023-03-11T17:16:26.071Z,65.14
2023-03-11T17:19:33.958Z,63.89
2023-03-11T17:22:40.850Z,64.66
2023-03-11T17:25:46.723Z,64.60
2023-03-11T17:28:56.161Z,63.97
2023-03-11T17:32:01.969Z,64.32
2023-03-11T17:35:10.188Z,64.99
2023-03-11T17:38:16.736Z,64.85
2023-03-11T17:41:25.024Z,62.56
2023-03-11T17:44:50.223Z,62.39
2023-03-11T17:47:58.150Z,62.71
2023-03-11T17:51:10.258Z,63.94
2023-03-11T17:54:16.967Z,62.04
2023-03-11T17:57:23.072Z,63.48
2023-03-11T18:00:32.329Z,62.93
2023-03-11T18:03:38.147Z,62.23
2023-03-11T18:06:44.825Z,61.96
2023-03-11T18:09:55.291Z,63.21
2023-03-11T18:13:02.093Z,62.15
2023-03-11T18:16:15.534Z,61.22
2023-03-11T18:19:22.643Z,61.62
2023-03-11T18:22:28.476Z,62.40
2023-03-11T18:25:35.629Z,62.11
2023-03-11T18:28:42.994Z,62.75
2023-03-11T18:31:52.332Z,61.90
2023-03-11T18:34:58.089Z,60.38
2023-03-11T18:38:04.858Z,61.99
2023-03-11T18:41:10.738Z,61.37
2023-03-11T18:44:17.420Z,61.68
2023-03-11T18:47:25.833Z,61.49
2023-03-11T18:50:32.562Z,60.91
2023-03-11T18:53:40.690Z,61.09
2023-03-11T18:56:49.964Z,61.11
2023-03-11T18:59:55.758Z,60.39
2023-03-11T19:03:05.120Z,61.24
2023-03-11T19:06:12.342Z,59.84
2023-03-11T19:09:19.465Z,61.47
2023-03-11T19:12:29.389Z,60.81
2023-03-11T19:15:36.180Z,59.58
2023-03-11T19:18:47.768Z,60.21
2023-03-11T19:21:55.567Z,60.00
2023-03-11T19:25:01.404Z,61.67
2023-03-11T19:28:08.402Z,60.39
2023-03-11T19:31:14.320Z,60.54
2023-03-11T19:34:24.082Z,61.84
2023-03-11T19:37:29.857Z,60.71
2023-03-11T19:40:36.691Z,60.68
2023-03-11T19:43:43.063Z,61.06
2023-03-11T19:46:49.924Z,61.75
2023-03-11T19:49:58.325Z,59.28
2023-03-11T19:53:05.158Z,59.82
2023-03-11T19:56:13.657Z,60.03
2023-03-11T19:59:20.381Z,59.23
2023-03-11T20:02:26.449Z,60.04
2023-03-11T20:05:39.364Z,59.38
2023-03-11T20:08:45.673Z,59.71
2023-03-11T20:11:52.455Z,59.78
2023-03-11T20:14:58.245Z,59.25
2023-03-11T20:18:06.536Z,58.99
2023-03-11T20:21:17.980Z,58.87
2023-03-11T20:24:24.975Z,59.29
2023-03-11T20:27:30.731Z,59.52
2023-03-11T20:30:38.071Z,59.92
2023-03-11T20:33:44.268Z,60.14
2023-03-11T20:36:53.798Z,59.54
2023-03-11T20:39:59.669Z,59.25
2023-03-11T20:43:06.439Z,59.06
2023-03-11T20:46:13.995Z,58.75
2023-03-11T20:49:20.647Z,58.78
2023-03-11T20:52:35.830Z,59.39
2023-03-11T20:55:44.235Z,60.15
2023-03-11T20:58:55.965Z,58.96
2023-03-11T21:02:03.526Z,58.56
2023-03-11T21:05:12.242Z,58.35
2023-03-11T21:08:21.772Z,57.86
2023-03-11T21:11:28.995Z,57.36
2023-03-11T21:14:35.647Z,56.80
2023-03-11T21:17:41.866Z,56.81
2023-03-11T21:20:48.951Z,59.04
2023-03-11T21:23:57.813Z,58.65
2023-03-11T21:27:05.029Z,58.20
2023-03-11T21:30:14.013Z,58.52
2023-03-11T21:33:21.160Z,58.72
2023-03-11T21:36:27.891Z,58.93
2023-03-11T21:39:37.207Z,59.37
2023-03-11T21:42:43.201Z,59.80
2023-03-11T21:45:55.483Z,60.03
2023-03-11T21:49:05.538Z,60.26
2023-03-11T21:52:13.145Z,60.13
2023-03-11T21:55:22.557Z,60.09
2023-03-11T21:58:30.526Z,60.53
2023-03-11T22:01:37.887Z,60.72
2023-03-11T22:04:45.013Z,60.45
2023-03-11T22:07:51.556Z,60.28
2023-03-11T22:11:01.200Z,60.53
2023-03-11T22:14:09.643Z,61.21
2023-03-11T22:17:16.657Z,60.65
2023-03-11T22:20:23.322Z,60.80
2023-03-11T22:23:30.836Z,60.14
2023-03-11T22:26:39.756Z,60.69
2023-03-11T22:29:46.676Z,59.70
2023-03-11T22:32:53.798Z,62.20
2023-03-11T22:36:02.314Z,59.42
2023-03-11T22:39:09.140Z,59.25
2023-03-11T22:42:18.824Z,58.59
2023-03-11T22:45:27.848Z,58.71
2023-03-11T22:48:35.117Z,58.25
2023-03-11T22:51:40.867Z,58.64
2023-03-11T22:54:48.096Z,58.28
2023-03-11T22:57:57.027Z,58.87
2023-03-11T23:01:04.262Z,59.25
2023-03-11T23:04:10.729Z,59.03
2023-03-11T23:07:18.478Z,59.86
2023-03-11T23:10:24.766Z,61.11
2023-03-11T23:13:35.999Z,59.05
2023-03-11T23:16:44.062Z,58.27
2023-03-11T23:19:50.761Z,59.20
2023-03-11T23:22:56.687Z,58.39
2023-03-11T23:26:03.731Z,58.73
2023-03-11T23:29:12.328Z,57.43
2023-03-11T23:32:18.933Z,58.85
2023-03-11T23:35:24.822Z,57.96
2023-03-11T23:38:31.562Z,57.64
2023-03-11T23:41:38.124Z,57.80
2023-03-11T23:44:47.345Z,56.92
2023-03-11T23:47:53.316Z,56.83
2023-03-11T23:51:00.756Z,56.79
2023-03-11T23:54:06.720Z,56.45
2023-03-11T23:57:13.439Z,57.09
